createdAt,value
2017-03-31T00:00:27.400Z,88.83
2017-03-31T00:01:49.542Z,88.92
2017-03-31T00:03:11.364Z,89.21
2017-03-31T00:04:33.481Z,88.83
2017-03-31T00:05:55.647Z,88.73
2017-03-31T00:07:16.846Z,88.92
2017-03-31T00:08:39.054Z,88.54
2017-03-31T00:10:01.223Z,88.45
2017-03-31T00:11:23.075Z,88.26
2017-03-31T00:12:44.661Z,88.92
2017-03-31T00:14:06.809Z,89.02
2017-03-31T00:15:29.039Z,89.21
2017-03-31T00:16:51.176Z,89.12
2017-03-31T00:18:13.337Z,88.92
2017-03-31T00:19:35.163Z,88.92
2017-03-31T00:20:57.603Z,89.4
2017-03-31T00:22:19.768Z,88.92
2017-03-31T00:23:40.985Z,89.5
2017-03-31T00:25:02.851Z,89.12
2017-03-31T00:26:25.612Z,89.12
2017-03-31T00:27:47.756Z,89.69
2017-03-31T00:29:09.941Z,89.69
2017-03-31T00:30:31.754Z,89.69
2017-03-31T00:31:54.537Z,89.78
2017-03-31T00:33:16.375Z,89.97
2017-03-31T00:34:38.196Z,89.97
2017-03-31T00:36:00.024Z,90.26
2017-03-31T00:37:22.748Z,90.07
2017-03-31T00:38:44.245Z,90.17
2017-03-31T00:40:05.815Z,90.36
2017-03-31T00:41:27.367Z,90.36
2017-03-31T00:42:49.514Z,90.12
2017-03-31T00:44:11.003Z,90.07
2017-03-31T00:45:33.147Z,89.88
2017-03-31T00:46:55.624Z,90.64
2017-03-31T00:48:17.746Z,90.45
2017-03-31T00:49:39.327Z,90.69
2017-03-31T00:51:01.176Z,90.36
2017-03-31T00:52:23.006Z,90.69
2017-03-31T00:53:44.774Z,90.07
2017-03-31T00:55:06.916Z,90.22
2017-03-31T00:56:28.794Z,90.03
2017-03-31T00:57:50.614Z,90.12
2017-03-31T00:59:12.744Z,89.93
2017-03-31T01:00:34.566Z,90.03
2017-03-31T01:01:56.701Z,90.41
2017-03-31T01:03:18.904Z,90.45
2017-03-31T01:04:41.402Z,89.74
2017-03-31T01:06:03.211Z,89.93
2017-03-31T01:07:25.356Z,89.83
2017-03-31T01:08:47.174Z,90.07
2017-03-31T01:10:09.255Z,89.93
2017-03-31T01:11:30.781Z,89.54
2017-03-31T01:12:52.953Z,90.41
2017-03-31T01:14:14.837Z,90.22
2017-03-31T01:15:36.639Z,90.22
2017-03-31T01:16:58.506Z,89.83
2017-03-31T01:18:20.447Z,90.22
2017-03-31T01:19:42.955Z,90.41
2017-03-31T01:21:05.349Z,89.93
2017-03-31T01:22:27.815Z,90.41
2017-03-31T01:23:49.650Z,89.93
2017-03-31T01:25:11.587Z,90.03
2017-03-31T01:26:34.276Z,90.12
2017-03-31T01:27:56.097Z,90.22
2017-03-31T01:29:17.922Z,90.12
2017-03-31T01:30:39.436Z,90.41
2017-03-31T01:32:01.254Z,90.69
2017-03-31T01:33:23.416Z,90.69
2017-03-31T01:34:45.602Z,90.59
2017-03-31T01:36:06.799Z,90.03
2017-03-31T01:37:29.247Z,90.22
2017-03-31T01:38:51.413Z,90.12
2017-03-31T01:40:12.903Z,90.03
2017-03-31T01:41:34.738Z,90.12
2017-03-31T01:42:56.852Z,90.03
2017-03-31T01:44:18.044Z,90.12
2017-03-31T01:45:40.286Z,89.93
2017-03-31T01:47:02.445Z,89.64
2017-03-31T01:48:24.918Z,90.31
2017-03-31T01:49:46.724Z,90.12
2017-03-31T01:51:07.611Z,89.93
2017-03-31T01:52:29.747Z,90.41
2017-03-31T01:53:52.624Z,90.79
2017-03-31T01:55:14.797Z,90.59
2017-03-31T01:56:36.986Z,90.22
2017-03-31T01:57:59.213Z,90.22
2017-03-31T01:59:21.604Z,90.31
2017-03-31T02:00:43.466Z,89.74
2017-03-31T02:02:04.997Z,90.22
2017-03-31T02:03:27.206Z,90.12
2017-03-31T02:04:49.342Z,90.22
2017-03-31T02:06:11.189Z,90.31
2017-03-31T02:07:33.351Z,90.69
2017-03-31T02:08:55.824Z,90.88
2017-03-31T02:10:18.662Z,90.69
2017-03-31T02:11:40.463Z,91.17
2017-03-31T02:13:02.021Z,90.79
2017-03-31T02:14:24.192Z,91.36
2017-03-31T02:15:46.629Z,91.27
2017-03-31T02:17:09.145Z,91.27
2017-03-31T02:18:31.292Z,91.07
2017-03-31T02:19:52.487Z,90.88
2017-03-31T02:21:14.936Z,90.88
2017-03-31T02:22:35.807Z,90.88
2017-03-31T02:23:57.939Z,90.98
2017-03-31T02:25:19.128Z,90.79
2017-03-31T02:26:41.332Z,91.17
2017-03-31T02:28:03.147Z,90.69
2017-03-31T02:29:25.277Z,90.79
2017-03-31T02:30:47.126Z,91.17
2017-03-31T02:32:08.936Z,91.46
2017-03-31T02:33:31.079Z,91.36
2017-03-31T02:34:53.392Z,90.59
2017-03-31T02:36:15.239Z,90.59
2017-03-31T02:37:37.716Z,90.98
2017-03-31T02:38:59.224Z,90.88
2017-03-31T02:40:21.407Z,90.59
2017-03-31T02:41:43.231Z,90.59
2017-03-31T02:43:05.006Z,91.17
2017-03-31T02:44:26.217Z,91.27
2017-03-31T02:45:48.353Z,91.27
2017-03-31T02:47:10.807Z,91.07
2017-03-31T02:48:33.245Z,91.17
2017-03-31T02:49:55.075Z,91.36
2017-03-31T02:51:16.641Z,91.07
2017-03-31T02:52:38.781Z,91.27
2017-03-31T02:54:00.848Z,91.07
2017-03-31T02:55:22.966Z,91.17
2017-03-31T02:56:45.120Z,91.27
2017-03-31T02:58:06.952Z,91.17
2017-03-31T02:59:29.075Z,91.17
2017-03-31T03:00:51.213Z,91.07
2017-03-31T03:02:13.036Z,91.27
2017-03-31T03:03:34.541Z,91.07
2017-03-31T03:04:56.045Z,91.93
2017-03-31T03:06:17.575Z,91.55
2017-03-31T03:07:39.395Z,91.46
2017-03-31T03:09:01.848Z,92.12
2017-03-31T03:10:23.973Z,91.88
2017-03-31T03:11:45.474Z,91.88
2017-03-31T03:13:07.666Z,91.88
2017-03-31T03:14:30.148Z,91.03
2017-03-31T03:15:52.516Z,91.07
2017-03-31T03:17:15.169Z,91.27
2017-03-31T03:18:36.988Z,91.07
2017-03-31T03:19:59.451Z,90.88
2017-03-31T03:21:22.135Z,90.69
2017-03-31T03:22:44.277Z,91.27
2017-03-31T03:24:05.785Z,91.27
2017-03-31T03:25:27.593Z,91.36
2017-03-31T03:26:49.047Z,91.22
2017-03-31T03:28:11.318Z,92.03
2017-03-31T03:29:33.141Z,91.64
2017-03-31T03:30:54.987Z,91.5
2017-03-31T03:32:17.148Z,91.69
2017-03-31T03:33:39.623Z,91.46
2017-03-31T03:35:01.142Z,91.79
2017-03-31T03:36:23.388Z,92.46
2017-03-31T03:37:45.776Z,91.98
2017-03-31T03:39:07.274Z,92.08
2017-03-31T03:40:29.458Z,91.88
2017-03-31T03:41:51.626Z,92.27
2017-03-31T03:43:13.405Z,92.27
2017-03-31T03:44:34.924Z,92.17
2017-03-31T03:45:57.076Z,92.17
2017-03-31T03:47:18.650Z,91.88
2017-03-31T03:48:41.128Z,92.08
2017-03-31T03:50:02.954Z,92.27
2017-03-31T03:51:24.790Z,92.36
2017-03-31T03:52:46.614Z,92.27
2017-03-31T03:54:08.670Z,92.55
2017-03-31T03:55:30.337Z,92.08
2017-03-31T03:56:52.008Z,92.55
2017-03-31T03:58:13.514Z,92.55
2017-03-31T03:59:35.904Z,93.12
2017-03-31T04:00:58.033Z,93.12
2017-03-31T04:02:20.178Z,92.74
2017-03-31T04:03:41.756Z,93.12
2017-03-31T04:05:03.821Z,93.12
2017-03-31T04:06:25.673Z,93.32
2017-03-31T04:07:47.814Z,93.6
2017-03-31T04:09:09.614Z,93.79
2017-03-31T04:10:32.154Z,93.51
2017-03-31T04:11:54.293Z,93.88
2017-03-31T04:13:15.918Z,93.98
2017-03-31T04:14:37.746Z,93.6
2017-03-31T04:15:59.609Z,93.6
2017-03-31T04:17:21.495Z,93.6
2017-03-31T04:18:43.947Z,93.98
2017-03-31T04:20:06.442Z,93.22
2017-03-31T04:21:28.211Z,93.32
2017-03-31T04:22:50.354Z,93.6
2017-03-31T04:24:12.495Z,93.6
2017-03-31T04:25:34.326Z,93.79
2017-03-31T04:26:56.823Z,93.6
2017-03-31T04:28:18.775Z,93.6
2017-03-31T04:29:40.045Z,93.32
2017-03-31T04:31:01.907Z,93.32
2017-03-31T04:32:23.752Z,93.98
2017-03-31T04:33:45.874Z,92.93
2017-03-31T04:35:08.018Z,93.88
2017-03-31T04:36:29.624Z,93.79
2017-03-31T04:37:52.174Z,93.88
2017-03-31T04:39:13.706Z,93.93
2017-03-31T04:40:35.215Z,94.03
2017-03-31T04:41:57.044Z,93.84
2017-03-31T04:43:19.556Z,94.03
2017-03-31T04:44:41.380Z,94.41
2017-03-31T04:46:03.204Z,94.51
2017-03-31T04:47:25.446Z,94.7
2017-03-31T04:48:47.871Z,94.6
2017-03-31T04:50:10.144Z,94.7
2017-03-31T04:51:31.652Z,94.41
2017-03-31T04:52:53.514Z,94.79
2017-03-31T04:54:15.275Z,94.79
2017-03-31T04:55:37.313Z,95.08
2017-03-31T04:56:59.137Z,95.08
2017-03-31T04:58:21.298Z,94.79
2017-03-31T04:59:43.731Z,94.89
2017-03-31T05:01:05.555Z,94.79
2017-03-31T05:02:27.376Z,95.27
2017-03-31T05:03:49.827Z,94.89
2017-03-31T05:05:11.926Z,94.98
2017-03-31T05:06:34.085Z,95.36
2017-03-31T05:07:55.904Z,94.98
2017-03-31T05:09:18.385Z,95.36
2017-03-31T05:10:41.405Z,95.08
2017-03-31T05:12:03.564Z,95.17
2017-03-31T05:13:25.135Z,95.65
2017-03-31T05:14:47.269Z,95.36
2017-03-31T05:16:09.339Z,94.98
2017-03-31T05:17:31.863Z,95.17
2017-03-31T05:18:54.008Z,94.7
2017-03-31T05:20:16.166Z,94.41
2017-03-31T05:21:37.996Z,94.7
2017-03-31T05:23:00.149Z,93.84
2017-03-31T05:24:21.981Z,93.55
2017-03-31T05:25:44.125Z,93.79
2017-03-31T05:27:06.218Z,93.6
2017-03-31T05:28:28.042Z,92.93
2017-03-31T05:29:49.277Z,92.84
2017-03-31T05:31:11.443Z,92.93
2017-03-31T05:32:33.870Z,92.08
2017-03-31T05:33:55.806Z,91.6
2017-03-31T05:35:17.953Z,92.46
2017-03-31T05:36:39.794Z,91.98
2017-03-31T05:38:01.866Z,91.88
2017-03-31T05:39:23.394Z,91.13
2017-03-31T05:40:45.749Z,90.93
2017-03-31T05:42:07.895Z,90.98
2017-03-31T05:43:29.720Z,90.22
2017-03-31T05:44:51.845Z,90.22
2017-03-31T05:46:13.655Z,89.54
2017-03-31T05:47:35.904Z,88.98
2017-03-31T05:48:58.016Z,88.88
2017-03-31T05:50:20.166Z,88.02
2017-03-31T05:51:41.695Z,87.78
2017-03-31T05:53:03.213Z,87.68
2017-03-31T05:54:25.642Z,87.21
2017-03-31T05:55:47.778Z,87.02
2017-03-31T05:57:09.988Z,86.25
2017-03-31T05:58:31.855Z,85.25
2017-03-31T05:59:54.656Z,84.39
2017-03-31T06:01:16.898Z,83.05
2017-03-31T06:02:38.437Z,82.32
2017-03-31T06:04:00.057Z,80.61
2017-03-31T06:05:22.259Z,78.07
2017-03-31T06:06:44.485Z,77.15
2017-03-31T06:08:06.334Z,74.04
2017-03-31T06:09:28.150Z,72.16
2017-03-31T06:10:49.585Z,69.42
2017-03-31T06:12:11.422Z,66.32
2017-03-31T06:13:32.937Z,64.05
2017-03-31T06:14:54.808Z,62.48
2017-03-31T06:16:17.326Z,60.31
2017-03-31T06:17:39.496Z,59.06
2017-03-31T06:19:01.423Z,57.84
2017-03-31T06:20:23.588Z,56.52
2017-03-31T06:21:45.999Z,56.43
2017-03-31T06:23:08.134Z,55.85
2017-03-31T06:24:29.673Z,55.2
2017-03-31T06:25:51.577Z,55.49
2017-03-31T06:27:14.296Z,55.18
2017-03-31T06:28:36.617Z,55.56
2017-03-31T06:29:58.154Z,56.81
2017-03-31T06:31:19.667Z,56.59
2017-03-31T06:32:42.067Z,58.13
2017-03-31T06:34:04.254Z,58.2
2017-03-31T06:35:25.760Z,58
2017-03-31T06:36:47.926Z,57.9
2017-03-31T06:38:10.354Z,58.29
2017-03-31T06:39:32.534Z,58.1
2017-03-31T06:40:54.686Z,58.67
2017-03-31T06:42:16.926Z,58.67
2017-03-31T06:43:39.317Z,58.2
2017-03-31T06:45:01.446Z,59.22
2017-03-31T06:46:22.997Z,60.38
2017-03-31T06:47:45.154Z,60.53
2017-03-31T06:49:07.612Z,60.44
2017-03-31T06:50:29.493Z,60.15
2017-03-31T06:51:51.972Z,58.84
2017-03-31T06:53:14.147Z,58.36
2017-03-31T06:54:36.555Z,58.48
2017-03-31T06:55:58.717Z,57.62
2017-03-31T06:57:20.887Z,57.62
2017-03-31T06:58:43.047Z,58.2
2017-03-31T07:00:05.444Z,59.51
2017-03-31T07:01:27.283Z,59.61
2017-03-31T07:02:49.106Z,59.41
2017-03-31T07:04:11.260Z,59.22
2017-03-31T07:05:33.669Z,56.63
2017-03-31T07:06:55.507Z,55.82
2017-03-31T07:08:17.007Z,53.76
2017-03-31T07:09:38.518Z,52.15
2017-03-31T07:11:01.287Z,51.96
2017-03-31T07:12:23.438Z,52.83
2017-03-31T07:13:45.613Z,53.86
2017-03-31T07:15:07.781Z,54.69
2017-03-31T07:16:30.529Z,53.92
2017-03-31T07:17:52.695Z,54.22
2017-03-31T07:19:14.827Z,54.41
2017-03-31T07:20:36.382Z,54.5
2017-03-31T07:21:58.142Z,54.5
2017-03-31T07:23:19.980Z,53.74
2017-03-31T07:24:41.835Z,53.19
2017-03-31T07:26:03.706Z,51.67
2017-03-31T07:27:25.829Z,51.21
2017-03-31T07:28:47.974Z,50.83
2017-03-31T07:30:10.467Z,50.63
2017-03-31T07:31:31.996Z,50.45
2017-03-31T07:32:54.548Z,50.25
2017-03-31T07:34:16.393Z,49.96
2017-03-31T07:35:37.604Z,50.15
2017-03-31T07:36:59.832Z,48.83
2017-03-31T07:38:22.226Z,48.06
2017-03-31T07:39:44.045Z,48.28
2017-03-31T07:41:06.510Z,46.56
2017-03-31T07:42:28.668Z,46.47
2017-03-31T07:43:50.558Z,46.28
2017-03-31T07:45:12.716Z,47.41
2017-03-31T07:46:34.253Z,48.38
2017-03-31T07:47:56.584Z,50.27
2017-03-31T07:49:18.076Z,51.96
2017-03-31T07:50:40.530Z,53.09
2017-03-31T07:52:02.395Z,54.02
2017-03-31T07:53:24.218Z,55.53
2017-03-31T07:54:46.776Z,56.76
2017-03-31T07:56:08.677Z,57.52
2017-03-31T07:57:30.297Z,57.59
2017-03-31T07:58:52.459Z,57.68
2017-03-31T08:00:15.329Z,57.78
2017-03-31T08:01:37.492Z,58.36
2017-03-31T08:02:59.962Z,57.78
2017-03-31T08:04:21.837Z,58.64
2017-03-31T08:05:44.247Z,58.07
2017-03-31T08:07:06.783Z,57.68
2017-03-31T08:08:29.244Z,58.64
2017-03-31T08:09:51.525Z,57.88
2017-03-31T08:11:13.366Z,57.68
2017-03-31T08:12:35.205Z,57.59
2017-03-31T08:13:56.713Z,57.68
2017-03-31T08:15:18.907Z,57.78
2017-03-31T08:16:41.065Z,57.78
2017-03-31T08:18:03.004Z,57.68
2017-03-31T08:19:24.854Z,58.1
2017-03-31T08:20:46.699Z,57.33
2017-03-31T08:22:08.864Z,57.33
2017-03-31T08:23:31.037Z,56.76
2017-03-31T08:24:53.202Z,56.78
2017-03-31T08:26:15.270Z,58
2017-03-31T08:27:37.855Z,57.81
2017-03-31T08:28:59.680Z,57.52
2017-03-31T08:30:21.509Z,57.33
2017-03-31T08:31:43.355Z,56.88
2017-03-31T08:33:05.965Z,56.59
2017-03-31T08:34:27.495Z,57.26
2017-03-31T08:35:48.708Z,56.3
2017-03-31T08:37:10.973Z,56.59
2017-03-31T08:38:33.136Z,57.07
2017-03-31T08:39:55.285Z,55.91
2017-03-31T08:41:17.500Z,56.3
2017-03-31T08:42:39.414Z,56.3
2017-03-31T08:44:00.958Z,56.01
2017-03-31T08:45:23.259Z,56.01
2017-03-31T08:46:45.421Z,55.76
2017-03-31T08:48:06.949Z,55.66
2017-03-31T08:49:29.521Z,55.76
2017-03-31T08:50:50.730Z,55.76
2017-03-31T08:52:12.566Z,55.46
2017-03-31T08:53:34.454Z,55.56
2017-03-31T08:54:56.296Z,55.37
2017-03-31T08:56:18.128Z,54.89
2017-03-31T08:57:40.601Z,55.2
2017-03-31T08:59:02.163Z,54.63
2017-03-31T09:00:23.689Z,54.24
2017-03-31T09:01:46.173Z,54.43
2017-03-31T09:03:08.323Z,54.14
2017-03-31T09:04:29.819Z,54.08
2017-03-31T09:05:52.206Z,54.27
2017-03-31T09:07:14.040Z,54.85
2017-03-31T09:08:36.186Z,54.82
2017-03-31T09:09:58.451Z,54.94
2017-03-31T09:11:20.587Z,54.85
2017-03-31T09:12:43.117Z,53.81
2017-03-31T09:14:04.651Z,53.23
2017-03-31T09:15:26.825Z,53.14
2017-03-31T09:16:48.892Z,54.1
2017-03-31T09:18:11.052Z,54.75
2017-03-31T09:19:32.264Z,54.65
2017-03-31T09:20:54.095Z,54.27
2017-03-31T09:22:15.865Z,54.58
2017-03-31T09:23:38.346Z,54.3
2017-03-31T09:25:00.941Z,54.78
2017-03-31T09:26:23.491Z,54.3
2017-03-31T09:27:46.256Z,54.87
2017-03-31T09:29:08.072Z,55.04
2017-03-31T09:30:30.248Z,55.62
2017-03-31T09:31:52.533Z,55.9
2017-03-31T09:33:14.316Z,56
2017-03-31T09:34:36.478Z,56.2
2017-03-31T09:35:58.652Z,55.04
2017-03-31T09:37:20.814Z,55.23
2017-03-31T09:38:43.094Z,54.78
2017-03-31T09:40:05.582Z,54.78
2017-03-31T09:41:28.066Z,54.87
2017-03-31T09:42:50.228Z,54.3
2017-03-31T09:44:12.401Z,53.23
2017-03-31T09:45:34.554Z,54
2017-03-31T09:46:56.696Z,53.81
2017-03-31T09:48:18.206Z,52.49
2017-03-31T09:49:40.690Z,53.07
2017-03-31T09:51:02.864Z,52.69
2017-03-31T09:52:25.022Z,52.49
2017-03-31T09:53:46.575Z,52.3
2017-03-31T09:55:09.077Z,51.84
2017-03-31T09:56:31.557Z,52.33
2017-03-31T09:57:53.491Z,52.61
2017-03-31T09:59:15.660Z,51.53
2017-03-31T10:00:37.879Z,51.92
2017-03-31T10:02:00.024Z,51.43
2017-03-31T10:03:21.950Z,51.82
2017-03-31T10:04:43.156Z,51.26
2017-03-31T10:06:05.247Z,51.56
2017-03-31T10:07:27.143Z,50.3
2017-03-31T10:08:48.966Z,50.13
2017-03-31T10:10:10.495Z,50.62
2017-03-31T10:11:32.610Z,50.11
2017-03-31T10:12:54.816Z,50.13
2017-03-31T10:14:17.276Z,50.32
2017-03-31T10:15:39.445Z,49.82
2017-03-31T10:17:01.316Z,51
2017-03-31T10:18:23.816Z,50.52
2017-03-31T10:19:45.719Z,50.9
2017-03-31T10:21:08.265Z,49.84
2017-03-31T10:22:30.106Z,49.75
2017-03-31T10:23:52.635Z,48.69
2017-03-31T10:25:14.458Z,48.21
2017-03-31T10:26:36.983Z,48.79
2017-03-31T10:27:58.836Z,49.48
2017-03-31T10:29:20.985Z,48.71
2017-03-31T10:30:43.129Z,49.19
2017-03-31T10:32:05.060Z,48.9
2017-03-31T10:33:27.256Z,49
2017-03-31T10:34:49.768Z,49
2017-03-31T10:36:11.647Z,48.03
2017-03-31T10:37:34.134Z,48.81
2017-03-31T10:38:55.999Z,48.33
2017-03-31T10:40:17.694Z,47.77
2017-03-31T10:41:39.955Z,47.65
2017-03-31T10:43:01.957Z,48.13
2017-03-31T10:44:24.419Z,49.77
2017-03-31T10:45:46.246Z,49.19
2017-03-31T10:47:07.754Z,49.87
2017-03-31T10:48:29.288Z,48.16
2017-03-31T10:49:51.376Z,47.77
2017-03-31T10:51:13.213Z,47.22
2017-03-31T10:52:34.716Z,47.6
2017-03-31T10:53:56.584Z,47.5
2017-03-31T10:55:19.096Z,47.7
2017-03-31T10:56:41.306Z,47.31
2017-03-31T10:58:03.577Z,47.89
2017-03-31T10:59:25.759Z,47.33
2017-03-31T11:00:48.155Z,46.66
2017-03-31T11:02:10.286Z,45.79
2017-03-31T11:03:31.806Z,46.08
2017-03-31T11:04:54.272Z,46.73
2017-03-31T11:06:16.697Z,46.44
2017-03-31T11:07:38.848Z,46.54
2017-03-31T11:09:00.712Z,46.71
2017-03-31T11:10:22.575Z,46.34
2017-03-31T11:11:45.044Z,46.17
2017-03-31T11:13:06.938Z,44.82
2017-03-31T11:15:01.447Z,44.94
2017-03-31T11:16:23.618Z,44.84
2017-03-31T11:17:47.044Z,45.33
2017-03-31T11:19:08.585Z,46.1
2017-03-31T11:20:30.420Z,45.04
2017-03-31T11:21:53.210Z,44.26
2017-03-31T11:23:15.397Z,44.26
2017-03-31T11:24:37.993Z,43.78
2017-03-31T11:25:59.835Z,43.8
2017-03-31T11:27:22.566Z,43.71
2017-03-31T11:28:44.087Z,43.71
2017-03-31T11:30:06.264Z,44.19
2017-03-31T11:31:28.828Z,44.26
2017-03-31T11:32:53.358Z,44.07
2017-03-31T11:34:15.646Z,44.53
2017-03-31T11:35:37.486Z,45.31
2017-03-31T11:36:59.840Z,46.17
2017-03-31T11:38:22.658Z,44.92
2017-03-31T11:39:45.146Z,44.63
2017-03-31T11:41:06.979Z,45.11
2017-03-31T11:42:28.495Z,44.43
2017-03-31T11:43:50.937Z,43.76
2017-03-31T11:45:13.083Z,44.05
2017-03-31T11:46:35.255Z,44.24
2017-03-31T11:47:57.124Z,44.34
2017-03-31T11:49:19.534Z,44.43
2017-03-31T11:50:42.154Z,44.05
2017-03-31T11:52:03.694Z,44.15
2017-03-31T11:53:25.526Z,44.6
2017-03-31T11:54:48.287Z,44.05
2017-03-31T11:56:10.115Z,44.24
2017-03-31T11:57:31.965Z,44.15
2017-03-31T11:58:54.135Z,43.85
2017-03-31T12:00:15.469Z,43.76
2017-03-31T12:01:37.331Z,43.18
2017-03-31T12:02:59.482Z,42.82
2017-03-31T12:04:21.659Z,42.82
2017-03-31T12:05:43.706Z,42.83
2017-03-31T12:07:05.864Z,42.91
2017-03-31T12:08:27.725Z,43.03
2017-03-31T12:09:49.943Z,43.13
2017-03-31T12:11:12.554Z,41.5
2017-03-31T12:12:34.733Z,42.07
2017-03-31T12:13:57.241Z,41.97
2017-03-31T12:15:19.518Z,42.35
2017-03-31T12:16:42.267Z,42.35
2017-03-31T12:18:04.774Z,43.32
2017-03-31T12:19:26.951Z,42.45
2017-03-31T12:20:48.485Z,42.65
2017-03-31T12:22:11.217Z,42.45
2017-03-31T12:23:33.080Z,42.16
2017-03-31T12:24:55.577Z,41.67
2017-03-31T12:26:17.801Z,41.31
2017-03-31T12:27:40.263Z,41.58
2017-03-31T12:29:02.104Z,42.45
2017-03-31T12:30:23.982Z,42.55
2017-03-31T12:31:45.837Z,41.77
2017-03-31T12:33:08.847Z,40.71
2017-03-31T12:34:30.357Z,41.31
2017-03-31T12:35:51.585Z,40.52
2017-03-31T12:37:13.809Z,40.73
2017-03-31T12:38:36.743Z,40.61
2017-03-31T12:40:00.112Z,39.84
2017-03-31T12:41:23.778Z,40.03
2017-03-31T12:42:47.245Z,40.13
2017-03-31T12:44:10.736Z,40.69
2017-03-31T12:45:32.955Z,40.81
2017-03-31T12:46:54.806Z,40.9
2017-03-31T12:48:16.325Z,40.71
2017-03-31T12:49:38.784Z,40.52
2017-03-31T12:51:00.324Z,40.71
2017-03-31T12:52:22.546Z,41.17
2017-03-31T12:53:45.009Z,40.98
2017-03-31T12:55:07.499Z,42.04
2017-03-31T12:56:29.072Z,42.14
2017-03-31T12:57:51.317Z,40.59
2017-03-31T12:59:13.815Z,41.17
2017-03-31T13:00:36.230Z,40.96
2017-03-31T13:01:58.082Z,40.57
2017-03-31T13:03:20.237Z,40.38
2017-03-31T13:04:42.744Z,41.35
2017-03-31T13:06:05.234Z,41.15
2017-03-31T13:07:26.757Z,38.64
2017-03-31T13:08:48.970Z,39.99
2017-03-31T13:10:11.122Z,40.09
2017-03-31T13:11:33.793Z,40.19
2017-03-31T13:12:55.980Z,39.99
2017-03-31T13:14:17.184Z,39.99
2017-03-31T13:15:39.334Z,39.61
2017-03-31T13:17:01.552Z,39.99
2017-03-31T13:18:23.108Z,38.54
2017-03-31T13:19:46.134Z,38.25
2017-03-31T13:21:08.353Z,37.96
2017-03-31T13:22:30.435Z,37.96
2017-03-31T13:23:53.037Z,38.16
2017-03-31T13:25:15.513Z,38.71
2017-03-31T13:26:37.365Z,39.29
2017-03-31T13:27:59.550Z,39.97
2017-03-31T13:29:21.735Z,39.39
2017-03-31T13:30:43.766Z,39.87
2017-03-31T13:32:05.954Z,39.97
2017-03-31T13:33:27.434Z,39.97
2017-03-31T13:34:49.916Z,39.69
2017-03-31T13:36:11.843Z,39.59
2017-03-31T13:37:34.335Z,39.87
2017-03-31T13:38:57.097Z,39.61
2017-03-31T13:40:19.565Z,38.83
2017-03-31T13:41:42.049Z,39.32
2017-03-31T13:43:04.503Z,38.54
2017-03-31T13:44:26.696Z,38.93
2017-03-31T13:45:49.282Z,38.95
2017-03-31T13:47:11.240Z,38.18
2017-03-31T13:48:33.408Z,38.37
2017-03-31T13:49:55.825Z,39.45
2017-03-31T13:51:18.038Z,38.58
2017-03-31T13:52:40.216Z,38.68
2017-03-31T13:54:02.494Z,38.2
2017-03-31T13:55:24.607Z,38.97
2017-03-31T13:56:46.850Z,38.48
2017-03-31T13:58:09.368Z,38.48
2017-03-31T13:59:31.555Z,38.29
2017-03-31T14:00:53.360Z,38.1
2017-03-31T14:02:15.262Z,38.39
2017-03-31T14:03:36.497Z,38.58
2017-03-31T14:04:58.914Z,38.48
2017-03-31T14:06:21.712Z,38.58
2017-03-31T14:07:43.566Z,38.1
2017-03-31T14:09:06.046Z,38.1
2017-03-31T14:10:27.884Z,37.71
2017-03-31T14:11:50.613Z,37.79
2017-03-31T14:13:12.277Z,38.18
2017-03-31T14:14:34.462Z,38.46
2017-03-31T14:15:56.627Z,38.66
2017-03-31T14:17:19.036Z,38.56
2017-03-31T14:18:40.878Z,38.08
2017-03-31T14:20:03.053Z,40.4
2017-03-31T14:21:25.564Z,40.11
2017-03-31T14:22:47.346Z,39.24
2017-03-31T14:24:08.890Z,39.24
2017-03-31T14:25:31.059Z,38.93
2017-03-31T14:26:52.579Z,38.56
2017-03-31T14:28:15.055Z,38.16
2017-03-31T14:29:36.296Z,37.98
2017-03-31T14:30:58.461Z,38.83
2017-03-31T14:32:20.665Z,39.12
2017-03-31T14:33:43.297Z,39.41
2017-03-31T14:35:05.164Z,38.66
2017-03-31T14:36:27.073Z,38.08
2017-03-31T14:37:49.223Z,38.46
2017-03-31T14:39:11.634Z,38.37
2017-03-31T14:40:33.865Z,37.98
2017-03-31T14:41:56.350Z,38.06
2017-03-31T14:43:18.951Z,38.83
2017-03-31T14:44:41.462Z,37.96
2017-03-31T14:46:03.944Z,37.19
2017-03-31T14:47:25.786Z,37.67
2017-03-31T14:48:47.389Z,38.64
2017-03-31T14:50:09.837Z,38.64
2017-03-31T14:51:32.335Z,37.87
2017-03-31T14:52:54.201Z,38.46
2017-03-31T14:54:16.695Z,37.7
2017-03-31T14:55:38.518Z,37.88
2017-03-31T14:57:01.045Z,38.85
2017-03-31T14:58:23.533Z,38.95
2017-03-31T14:59:46.017Z,39.14
2017-03-31T15:01:08.108Z,37.6
2017-03-31T15:02:30.116Z,36.44
2017-03-31T15:03:52.357Z,36.05
2017-03-31T15:05:14.877Z,36.32
2017-03-31T15:06:37.676Z,36.61
2017-03-31T15:07:59.911Z,36.32
2017-03-31T15:09:22.184Z,36.05
2017-03-31T15:10:44.327Z,36.22
2017-03-31T15:12:05.926Z,34.87
2017-03-31T15:13:27.900Z,35.26
2017-03-31T15:14:50.370Z,34.48
2017-03-31T15:16:12.526Z,34.48
2017-03-31T15:17:34.997Z,35.74
2017-03-31T15:18:56.876Z,35.64
2017-03-31T15:20:19.057Z,35.74
2017-03-31T15:21:41.309Z,34.39
2017-03-31T15:23:03.585Z,34.58
2017-03-31T15:24:25.765Z,36.61
2017-03-31T15:25:47.753Z,36.98
2017-03-31T15:27:09.607Z,37.27
2017-03-31T15:28:31.437Z,38.62
2017-03-31T15:29:53.657Z,39.97
2017-03-31T15:31:15.855Z,39.59
2017-03-31T15:32:38.129Z,38.23
2017-03-31T15:34:00.627Z,38.91
2017-03-31T15:35:22.490Z,39.47
2017-03-31T15:36:44.757Z,38.12
2017-03-31T15:38:07.061Z,39.28
2017-03-31T15:39:29.506Z,39.47
2017-03-31T15:40:51.700Z,39.76
2017-03-31T15:42:14.224Z,39.66
2017-03-31T15:43:36.743Z,39.26
2017-03-31T15:44:59.169Z,39.06
2017-03-31T15:46:21.362Z,39.06
2017-03-31T15:47:43.874Z,39.26
2017-03-31T15:49:05.721Z,39.45
2017-03-31T15:50:27.637Z,39.36
2017-03-31T15:51:49.913Z,39.26
2017-03-31T15:53:11.803Z,39.16
2017-03-31T15:54:33.404Z,39.06
2017-03-31T15:55:55.966Z,39.06
2017-03-31T15:57:18.118Z,38.51
2017-03-31T15:58:40.668Z,38.41
2017-03-31T16:00:02.815Z,38.12
2017-03-31T16:01:25.600Z,37.35
2017-03-31T16:02:48.165Z,37.25
2017-03-31T16:04:10.330Z,37.56
2017-03-31T16:05:31.918Z,37.17
2017-03-31T16:06:54.325Z,37.17
2017-03-31T16:08:16.503Z,36.79
2017-03-31T16:09:38.987Z,36.59
2017-03-31T16:11:01.139Z,36.4
2017-03-31T16:12:23.305Z,36.38
2017-03-31T16:13:45.565Z,36.67
2017-03-31T16:15:07.850Z,36.67
2017-03-31T16:16:30.058Z,36.96
2017-03-31T16:17:52.505Z,36.96
2017-03-31T16:19:14.682Z,36.77
2017-03-31T16:20:36.851Z,37.15
2017-03-31T16:21:59.034Z,38.02
2017-03-31T16:23:21.456Z,38.12
2017-03-31T16:24:43.987Z,38.02
2017-03-31T16:26:06.188Z,37.52
2017-03-31T16:27:28.341Z,37.25
2017-03-31T16:28:50.821Z,37.45
2017-03-31T16:30:13.318Z,37.63
2017-03-31T16:31:35.499Z,37.63
2017-03-31T16:32:57.663Z,37.35
2017-03-31T16:34:20.436Z,37.71
2017-03-31T16:35:42.933Z,37.54
2017-03-31T16:37:05.124Z,38.21
2017-03-31T16:38:26.969Z,38.01
2017-03-31T16:39:49.191Z,38.2
2017-03-31T16:41:11.587Z,39.54
2017-03-31T16:42:33.505Z,39.26
2017-03-31T16:43:55.377Z,39.36
2017-03-31T16:45:17.525Z,39.64
2017-03-31T16:46:40.021Z,39.62
2017-03-31T16:48:01.972Z,40.39
2017-03-31T16:49:24.167Z,40.59
2017-03-31T16:50:46.988Z,41.55
2017-03-31T16:52:09.387Z,41.24
2017-03-31T16:53:31.564Z,41.72
2017-03-31T16:54:53.510Z,42.02
2017-03-31T16:56:16.345Z,41.82
2017-03-31T16:57:38.405Z,42.69
2017-03-31T16:59:00.982Z,42.47
2017-03-31T17:00:23.149Z,43.15
2017-03-31T17:01:45.967Z,43.44
2017-03-31T17:03:08.138Z,43.82
2017-03-31T17:04:30.325Z,44.11
2017-03-31T17:05:52.826Z,43.82
2017-03-31T17:07:15.348Z,44.02
2017-03-31T17:08:37.521Z,44.31
2017-03-31T17:10:00.076Z,45.05
2017-03-31T17:11:22.546Z,44.86
2017-03-31T17:12:44.756Z,44.76
2017-03-31T17:14:07.292Z,45.73
2017-03-31T17:15:29.125Z,45.05
2017-03-31T17:16:51.653Z,45.15
2017-03-31T17:18:14.420Z,45.7
2017-03-31T17:19:36.888Z,45.7
2017-03-31T17:20:59.421Z,45.99
2017-03-31T17:22:21.609Z,46.47
2017-03-31T17:23:44.092Z,46.47
2017-03-31T17:25:06.665Z,46.77
2017-03-31T17:26:28.529Z,47.15
2017-03-31T17:27:51.017Z,47.51
2017-03-31T17:29:13.520Z,47.41
2017-03-31T17:30:36.218Z,47.7
2017-03-31T17:31:58.766Z,48.47
2017-03-31T17:33:21.654Z,48.38
2017-03-31T17:34:43.886Z,48.85
2017-03-31T17:36:06.518Z,48.38
2017-03-31T17:37:29.017Z,48.54
2017-03-31T17:38:54.484Z,49.02
2017-03-31T17:40:17.037Z,49.79
2017-03-31T17:41:39.204Z,50.18